sensor_id;sensor_type;location;lat;lon;timestamp;pressure;altitude;pressure_sealevel;temperature;humidity
82621;BME280;72291;55.002;-1.592;2024-01-27T00:00:38;101837.27;;;6.16;57.32
82621;BME280;72291;55.002;-1.592;2024-01-27T00:03:03;101831.97;;;6.22;56.79
82621;BME280;72291;55.002;-1.592;2024-01-27T00:05:28;101830.67;;;6.08;56.74
82621;BME280;72291;55.002;-1.592;2024-01-27T00:07:53;101834.23;;;5.89;58.68
82621;BME280;72291;55.002;-1.592;2024-01-27T00:10:18;101826.19;;;6.36;56.71
82621;BME280;72291;55.002;-1.592;2024-01-27T00:12:45;101827.06;;;5.36;59.37
82621;BME280;72291;55.002;-1.592;2024-01-27T00:15:09;101828.06;;;5.28;60.08
82621;BME280;72291;55.002;-1.592;2024-01-27T00:17:34;101826.50;;;5.53;60.08
82621;BME280;72291;55.002;-1.592;2024-01-27T00:19:59;101833.13;;;5.23;59.91
82621;BME280;72291;55.002;-1.592;2024-01-27T00:22:24;101833.98;;;6.52;57.86
82621;BME280;72291;55.002;-1.592;2024-01-27T00:24:50;101833.64;;;5.15;61.22
82621;BME280;72291;55.002;-1.592;2024-01-27T00:27:15;101827.52;;;5.39;59.92
82621;BME280;72291;55.002;-1.592;2024-01-27T00:29:40;101838.38;;;4.95;62.40
82621;BME280;72291;55.002;-1.592;2024-01-27T00:32:05;101834.52;;;5.62;59.72
82621;BME280;72291;55.002;-1.592;2024-01-27T00:34:31;101825.93;;;5.33;59.89
82621;BME280;72291;55.002;-1.592;2024-01-27T00:36:57;101835.96;;;5.37;60.79
82621;BME280;72291;55.002;-1.592;2024-01-27T00:39:22;101832.83;;;5.90;58.79
82621;BME280;72291;55.002;-1.592;2024-01-27T00:41:47;101828.39;;;5.94;59.16
82621;BME280;72291;55.002;-1.592;2024-01-27T00:44:12;101830.08;;;5.44;61.49
82621;BME280;72291;55.002;-1.592;2024-01-27T00:46:38;101825.43;;;4.77;62.48
82621;BME280;72291;55.002;-1.592;2024-01-27T00:49:04;101820.90;;;6.00;59.25
82621;BME280;72291;55.002;-1.592;2024-01-27T00:51:28;101818.75;;;6.36;58.36
82621;BME280;72291;55.002;-1.592;2024-01-27T00:53:54;101819.90;;;5.71;59.82
82621;BME280;72291;55.002;-1.592;2024-01-27T00:56:19;101814.90;;;6.48;58.15
82621;BME280;72291;55.002;-1.592;2024-01-27T00:58:44;101812.50;;;5.99;59.17
82621;BME280;72291;55.002;-1.592;2024-01-27T01:01:10;101814.00;;;5.99;59.25
82621;BME280;72291;55.002;-1.592;2024-01-27T01:03:34;101818.06;;;5.37;61.31
82621;BME280;72291;55.002;-1.592;2024-01-27T01:05:59;101819.30;;;5.67;60.06
82621;BME280;72291;55.002;-1.592;2024-01-27T01:08:25;101823.12;;;7.05;57.46
82621;BME280;72291;55.002;-1.592;2024-01-27T01:10:55;101822.22;;;5.87;59.64
82621;BME280;72291;55.002;-1.592;2024-01-27T01:13:15;101818.19;;;5.89;58.28
82621;BME280;72291;55.002;-1.592;2024-01-27T01:49:34;101834.81;;;5.99;60.34
82621;BME280;72291;55.002;-1.592;2024-01-27T01:51:58;101839.53;;;5.27;60.72
82621;BME280;72291;55.002;-1.592;2024-01-27T01:54:24;101828.14;;;5.78;61.06
82621;BME280;72291;55.002;-1.592;2024-01-27T01:56:49;101834.09;;;4.62;64.39
82621;BME280;72291;55.002;-1.592;2024-01-27T01:59:14;101833.87;;;5.03;64.02
82621;BME280;72291;55.002;-1.592;2024-01-27T02:01:40;101827.23;;;5.23;62.43
82621;BME280;72291;55.002;-1.592;2024-01-27T02:04:04;101832.15;;;4.62;63.73
82621;BME280;72291;55.002;-1.592;2024-01-27T02:06:29;101836.74;;;4.40;65.38
82621;BME280;72291;55.002;-1.592;2024-01-27T02:08:54;101835.12;;;4.55;64.73
82621;BME280;72291;55.002;-1.592;2024-01-27T02:11:20;101838.56;;;4.39;65.56
82621;BME280;72291;55.002;-1.592;2024-01-27T02:13:48;101834.29;;;5.08;62.71
82621;BME280;72291;55.002;-1.592;2024-01-27T02:16:10;101829.15;;;6.22;59.40
82621;BME280;72291;55.002;-1.592;2024-01-27T02:18:35;101824.21;;;5.95;59.55
82621;BME280;72291;55.002;-1.592;2024-01-27T02:21:00;101832.98;;;6.37;58.78
82621;BME280;72291;55.002;-1.592;2024-01-27T02:23:25;101825.93;;;5.61;61.18
82621;BME280;72291;55.002;-1.592;2024-01-27T02:25:51;101830.48;;;6.20;59.17
82621;BME280;72291;55.002;-1.592;2024-01-27T02:28:16;101831.25;;;5.65;61.39
82621;BME280;72291;55.002;-1.592;2024-01-27T02:30:41;101828.63;;;5.55;61.02
82621;BME280;72291;55.002;-1.592;2024-01-27T02:33:06;101826.50;;;5.69;61.23
82621;BME280;72291;55.002;-1.592;2024-01-27T02:35:31;101828.14;;;5.32;62.38
82621;BME280;72291;55.002;-1.592;2024-01-27T02:37:57;101826.48;;;5.90;60.35
82621;BME280;72291;55.002;-1.592;2024-01-27T02:40:22;101826.47;;;6.21;59.44
82621;BME280;72291;55.002;-1.592;2024-01-27T02:42:47;101815.42;;;6.41;58.38
82621;BME280;72291;55.002;-1.592;2024-01-27T02:45:12;101816.30;;;6.25;59.30
82621;BME280;72291;55.002;-1.592;2024-01-27T02:47:37;101819.99;;;6.68;58.54
82621;BME280;72291;55.002;-1.592;2024-01-27T02:50:04;101814.90;;;6.88;58.35
82621;BME280;72291;55.002;-1.592;2024-01-27T02:52:27;101817.06;;;6.89;57.45
82621;BME280;72291;55.002;-1.592;2024-01-27T02:54:53;101823.55;;;5.19;61.72
82621;BME280;72291;55.002;-1.592;2024-01-27T02:57:18;101816.64;;;6.39;60.13
82621;BME280;72291;55.002;-1.592;2024-01-27T02:59:45;101816.19;;;6.18;59.38
82621;BME280;72291;55.002;-1.592;2024-01-27T03:02:08;101821.26;;;5.35;61.57
82621;BME280;72291;55.002;-1.592;2024-01-27T03:04:33;101819.00;;;5.52;61.81
82621;BME280;72291;55.002;-1.592;2024-01-27T03:06:58;101816.65;;;5.27;62.28
82621;BME280;72291;55.002;-1.592;2024-01-27T03:09:23;101813.82;;;6.67;59.40
82621;BME280;72291;55.002;-1.592;2024-01-27T03:11:49;101814.65;;;6.27;60.13
82621;BME280;72291;55.002;-1.592;2024-01-27T03:14:14;101815.40;;;5.61;61.57
82621;BME280;72291;55.002;-1.592;2024-01-27T03:16:39;101813.85;;;5.27;62.62
82621;BME280;72291;55.002;-1.592;2024-01-27T03:19:05;101819.29;;;5.31;62.90
82621;BME280;72291;55.002;-1.592;2024-01-27T03:21:29;101819.72;;;5.08;63.12
82621;BME280;72291;55.002;-1.592;2024-01-27T03:23:54;101820.64;;;5.16;63.32
82621;BME280;72291;55.002;-1.592;2024-01-27T03:26:21;101820.90;;;4.88;63.26
82621;BME280;72291;55.002;-1.592;2024-01-27T03:28:45;101818.56;;;5.85;60.56
82621;BME280;72291;55.002;-1.592;2024-01-27T03:31:10;101816.09;;;6.64;59.04
82621;BME280;72291;55.002;-1.592;2024-01-27T03:33:36;101821.32;;;5.84;60.53
82621;BME280;72291;55.002;-1.592;2024-01-27T03:36:01;101818.54;;;5.84;61.24
82621;BME280;72291;55.002;-1.592;2024-01-27T03:38:26;101815.69;;;5.49;62.33
82621;BME280;72291;55.002;-1.592;2024-01-27T03:40:51;101816.54;;;5.99;61.22
82621;BME280;72291;55.002;-1.592;2024-01-27T03:43:16;101812.18;;;5.20;62.86
82621;BME280;72291;55.002;-1.592;2024-01-27T03:45:41;101805.54;;;5.64;61.75
82621;BME280;72291;55.002;-1.592;2024-01-27T03:48:07;101806.37;;;5.06;64.07
82621;BME280;72291;55.002;-1.592;2024-01-27T03:50:32;101804.35;;;4.76;64.59
82621;BME280;72291;55.002;-1.592;2024-01-27T03:52:57;101800.91;;;5.00;63.53
82621;BME280;72291;55.002;-1.592;2024-01-27T03:55:22;101796.58;;;5.23;62.66
82621;BME280;72291;55.002;-1.592;2024-01-27T03:57:53;101802.75;;;4.94;64.69
82621;BME280;72291;55.002;-1.592;2024-01-27T04:00:13;101803.95;;;5.09;63.35
82621;BME280;72291;55.002;-1.592;2024-01-27T04:02:38;101799.13;;;5.44;62.82
82621;BME280;72291;55.002;-1.592;2024-01-27T04:05:04;101800.82;;;5.02;63.31
82621;BME280;72291;55.002;-1.592;2024-01-27T04:07:28;101802.79;;;5.36;63.18
82621;BME280;72291;55.002;-1.592;2024-01-27T04:09:54;101804.86;;;5.55;61.57
82621;BME280;72291;55.002;-1.592;2024-01-27T04:12:19;101807.14;;;5.17;62.95
82621;BME280;72291;55.002;-1.592;2024-01-27T04:14:45;101807.06;;;5.58;62.06
82621;BME280;72291;55.002;-1.592;2024-01-27T04:17:10;101810.64;;;5.15;62.37
82621;BME280;72291;55.002;-1.592;2024-01-27T04:19:35;101813.48;;;5.47;62.69
82621;BME280;72291;55.002;-1.592;2024-01-27T04:22:00;101816.86;;;5.27;63.52
82621;BME280;72291;55.002;-1.592;2024-01-27T04:24:25;101823.06;;;4.76;64.97
82621;BME280;72291;55.002;-1.592;2024-01-27T04:26:51;101819.57;;;5.31;63.97
82621;BME280;72291;55.002;-1.592;2024-01-27T04:29:16;101821.05;;;5.93;61.81
82621;BME280;72291;55.002;-1.592;2024-01-27T04:31:41;101820.96;;;6.14;61.46
82621;BME280;72291;55.002;-1.592;2024-01-27T04:34:06;101820.39;;;6.14;60.20
82621;BME280;72291;55.002;-1.592;2024-01-27T04:36:31;101820.85;;;6.30;59.89
82621;BME280;72291;55.002;-1.592;2024-01-27T04:38:56;101810.12;;;6.70;59.19
82621;BME280;72291;55.002;-1.592;2024-01-27T04:41:21;101813.83;;;6.21;60.24
82621;BME280;72291;55.002;-1.592;2024-01-27T04:43:47;101816.16;;;6.34;59.50
82621;BME280;72291;55.002;-1.592;2024-01-27T04:46:12;101810.62;;;6.60;58.68
82621;BME280;72291;55.002;-1.592;2024-01-27T04:48:37;101816.07;;;6.80;58.96
82621;BME280;72291;55.002;-1.592;2024-01-27T04:51:02;101815.38;;;6.43;58.75
82621;BME280;72291;55.002;-1.592;2024-01-27T04:53:27;101815.33;;;5.95;59.55
82621;BME280;72291;55.002;-1.592;2024-01-27T04:55:52;101806.69;;;5.61;60.42
82621;BME280;72291;55.002;-1.592;2024-01-27T04:58:17;101811.70;;;6.39;58.57
82621;BME280;72291;55.002;-1.592;2024-01-27T05:00:42;101812.22;;;5.68;59.71
82621;BME280;72291;55.002;-1.592;2024-01-27T05:03:08;101802.16;;;5.62;60.80
82621;BME280;72291;55.002;-1.592;2024-01-27T05:05:33;101807.23;;;5.97;59.73
82621;BME280;72291;55.002;-1.592;2024-01-27T05:07:58;101807.79;;;5.93;59.99
82621;BME280;72291;55.002;-1.592;2024-01-27T05:10:23;101810.08;;;5.93;58.81
82621;BME280;72291;55.002;-1.592;2024-01-27T05:12:48;101805.14;;;5.82;59.24
82621;BME280;72291;55.002;-1.592;2024-01-27T05:15:13;101806.56;;;6.10;59.49
82621;BME280;72291;55.002;-1.592;2024-01-27T05:17:38;101808.71;;;5.82;60.72
82621;BME280;72291;55.002;-1.592;2024-01-27T05:20:04;101798.96;;;5.34;61.00
82621;BME280;72291;55.002;-1.592;2024-01-27T05:22:29;101793.42;;;5.70;60.23
82621;BME280;72291;55.002;-1.592;2024-01-27T05:24:54;101799.91;;;5.55;60.89
82621;BME280;72291;55.002;-1.592;2024-01-27T05:27:20;101796.54;;;6.12;58.71
82621;BME280;72291;55.002;-1.592;2024-01-27T05:29:44;101779.80;;;5.95;59.93
82621;BME280;72291;55.002;-1.592;2024-01-27T05:32:09;101778.43;;;5.22;62.73
82621;BME280;72291;55.002;-1.592;2024-01-27T05:34:34;101778.58;;;5.07;62.60
82621;BME280;72291;55.002;-1.592;2024-01-27T05:37:00;101780.53;;;5.70;61.70
82621;BME280;72291;55.002;-1.592;2024-01-27T05:39:26;101782.79;;;5.72;61.24
82621;BME280;72291;55.002;-1.592;2024-01-27T05:41:51;101780.46;;;5.41;61.40
82621;BME280;72291;55.002;-1.592;2024-01-27T05:44:16;101791.27;;;4.75;63.82
82621;BME280;72291;55.002;-1.592;2024-01-27T05:46:41;101782.12;;;4.60;64.66
82621;BME280;72291;55.002;-1.592;2024-01-27T05:49:06;101782.90;;;4.68;64.48
82621;BME280;72291;55.002;-1.592;2024-01-27T05:51:32;101787.18;;;4.30;66.03
82621;BME280;72291;55.002;-1.592;2024-01-27T05:53:57;101784.18;;;4.66;65.30
82621;BME280;72291;55.002;-1.592;2024-01-27T05:56:22;101785.03;;;3.93;66.44
82621;BME280;72291;55.002;-1.592;2024-01-27T05:58:48;101780.87;;;4.69;63.85
82621;BME280;72291;55.002;-1.592;2024-01-27T06:01:12;101776.13;;;5.54;62.20
82621;BME280;72291;55.002;-1.592;2024-01-27T06:03:41;101776.20;;;4.57;64.65
82621;BME280;72291;55.002;-1.592;2024-01-27T06:06:03;101771.38;;;4.85;64.48
82621;BME280;72291;55.002;-1.592;2024-01-27T06:08:29;101771.78;;;4.84;64.30
82621;BME280;72291;55.002;-1.592;2024-01-27T06:10:53;101763.99;;;4.43;65.05
82621;BME280;72291;55.002;-1.592;2024-01-27T06:13:18;101772.71;;;4.80;63.58
82621;BME280;72291;55.002;-1.592;2024-01-27T06:15:44;101768.90;;;5.39;62.36
82621;BME280;72291;55.002;-1.592;2024-01-27T06:18:09;101768.83;;;4.99;63.00
82621;BME280;72291;55.002;-1.592;2024-01-27T06:20:34;101767.88;;;5.13;62.81
82621;BME280;72291;55.002;-1.592;2024-01-27T06:22:59;101768.30;;;4.52;65.21
82621;BME280;72291;55.002;-1.592;2024-01-27T06:25:24;101763.03;;;5.22;63.73
82621;BME280;72291;55.002;-1.592;2024-01-27T06:27:49;101763.30;;;5.15;63.16
82621;BME280;72291;55.002;-1.592;2024-01-27T06:30:15;101762.31;;;5.49;62.85
82621;BME280;72291;55.002;-1.592;2024-01-27T06:32:40;101764.87;;;5.50;63.08
82621;BME280;72291;55.002;-1.592;2024-01-27T06:35:06;101763.82;;;4.96;64.44
82621;BME280;72291;55.002;-1.592;2024-01-27T06:37:31;101756.85;;;4.03;67.53
82621;BME280;72291;55.002;-1.592;2024-01-27T06:40:01;101765.53;;;3.80;67.39
82621;BME280;72291;55.002;-1.592;2024-01-27T06:42:31;101770.97;;;4.97;64.72
82621;BME280;72291;55.002;-1.592;2024-01-27T06:44:46;101765.39;;;5.26;63.21
82621;BME280;72291;55.002;-1.592;2024-01-27T06:47:16;101757.73;;;5.25;62.36
82621;BME280;72291;55.002;-1.592;2024-01-27T06:49:39;101758.46;;;4.76;64.43
82621;BME280;72291;55.002;-1.592;2024-01-27T06:52:03;101761.61;;;4.45;65.03
82621;BME280;72291;55.002;-1.592;2024-01-27T06:54:27;101767.07;;;4.57;64.67
82621;BME280;72291;55.002;-1.592;2024-01-27T06:56:59;101775.76;;;4.67;63.77
82621;BME280;72291;55.002;-1.592;2024-01-27T06:59:27;101759.29;;;4.97;63.41
82621;BME280;72291;55.002;-1.592;2024-01-27T07:04:09;101759.27;;;4.26;64.73
82621;BME280;72291;55.002;-1.592;2024-01-27T07:23:31;101762.20;;;4.51;63.14
82621;BME280;72291;55.002;-1.592;2024-01-27T07:33:11;101765.43;;;5.70;57.87
82621;BME280;72291;55.002;-1.592;2024-01-27T07:35:37;101763.12;;;4.53;61.96
82621;BME280;72291;55.002;-1.592;2024-01-27T07:38:01;101763.44;;;4.52;61.34
82621;BME280;72291;55.002;-1.592;2024-01-27T07:40:26;101756.16;;;5.11;60.48
82621;BME280;72291;55.002;-1.592;2024-01-27T07:42:52;101760.14;;;5.16;60.71
82621;BME280;72291;55.002;-1.592;2024-01-27T07:45:17;101765.83;;;4.98;61.28
82621;BME280;72291;55.002;-1.592;2024-01-27T07:47:43;101764.06;;;6.03;57.26
82621;BME280;72291;55.002;-1.592;2024-01-27T07:50:08;101766.35;;;6.16;56.98
82621;BME280;72291;55.002;-1.592;2024-01-27T07:52:33;101762.28;;;6.46;56.46
82621;BME280;72291;55.002;-1.592;2024-01-27T07:54:58;101759.69;;;5.69;57.01
82621;BME280;72291;55.002;-1.592;2024-01-27T07:57:23;101759.72;;;6.27;56.17
82621;BME280;72291;55.002;-1.592;2024-01-27T07:59:48;101772.23;;;5.68;58.35
82621;BME280;72291;55.002;-1.592;2024-01-27T08:02:13;101765.02;;;6.11;57.03
82621;BME280;72291;55.002;-1.592;2024-01-27T08:04:39;101775.73;;;5.49;58.41
82621;BME280;72291;55.002;-1.592;2024-01-27T08:07:04;101784.08;;;5.54;59.08
82621;BME280;72291;55.002;-1.592;2024-01-27T08:09:29;101784.67;;;4.77;59.62
82621;BME280;72291;55.002;-1.592;2024-01-27T08:11:55;101783.69;;;4.80;60.49
82621;BME280;72291;55.002;-1.592;2024-01-27T08:14:19;101792.59;;;4.73;61.32
82621;BME280;72291;55.002;-1.592;2024-01-27T08:16:45;101789.37;;;4.72;61.32
82621;BME280;72291;55.002;-1.592;2024-01-27T08:19:10;101791.55;;;4.47;61.93
82621;BME280;72291;55.002;-1.592;2024-01-27T08:21:35;101792.61;;;4.89;60.65
82621;BME280;72291;55.002;-1.592;2024-01-27T08:24:01;101791.18;;;5.23;58.79
82621;BME280;72291;55.002;-1.592;2024-01-27T08:26:25;101794.04;;;5.36;58.91
82621;BME280;72291;55.002;-1.592;2024-01-27T08:28:50;101795.81;;;5.34;58.93
82621;BME280;72291;55.002;-1.592;2024-01-27T08:31:16;101790.26;;;5.34;58.97
82621;BME280;72291;55.002;-1.592;2024-01-27T08:33:41;101783.44;;;6.01;57.71
82621;BME280;72291;55.002;-1.592;2024-01-27T08:36:07;101781.88;;;5.51;58.69
82621;BME280;72291;55.002;-1.592;2024-01-27T08:38:31;101788.84;;;5.05;58.85
82621;BME280;72291;55.002;-1.592;2024-01-27T08:40:57;101799.13;;;4.29;61.77
82621;BME280;72291;55.002;-1.592;2024-01-27T08:43:22;101796.68;;;5.05;60.35
82621;BME280;72291;55.002;-1.592;2024-01-27T08:45:49;101794.77;;;5.42;58.73
82621;BME280;72291;55.002;-1.592;2024-01-27T08:48:14;101802.43;;;4.50;60.62
82621;BME280;72291;55.002;-1.592;2024-01-27T08:50:38;101801.83;;;4.82;61.01
82621;BME280;72291;55.002;-1.592;2024-01-27T08:53:04;101811.12;;;4.64;61.75
82621;BME280;72291;55.002;-1.592;2024-01-27T08:55:28;101811.51;;;4.49;62.50
82621;BME280;72291;55.002;-1.592;2024-01-27T08:57:53;101814.00;;;4.49;61.50
82621;BME280;72291;55.002;-1.592;2024-01-27T09:00:20;101817.57;;;5.05;59.45
82621;BME280;72291;55.002;-1.592;2024-01-27T09:02:44;101813.28;;;6.67;56.18
82621;BME280;72291;55.002;-1.592;2024-01-27T09:05:09;101813.58;;;6.40;55.67
82621;BME280;72291;55.002;-1.592;2024-01-27T09:07:34;101804.85;;;6.82;55.31
82621;BME280;72291;55.002;-1.592;2024-01-27T09:12:26;101802.81;;;6.74;55.57
82621;BME280;72291;55.002;-1.592;2024-01-27T09:14:49;101794.95;;;6.70;55.79
82621;BME280;72291;55.002;-1.592;2024-01-27T09:17:15;101798.40;;;5.57;58.97
82621;BME280;72291;55.002;-1.592;2024-01-27T09:19:41;101802.83;;;6.13;58.88
82621;BME280;72291;55.002;-1.592;2024-01-27T09:22:05;101799.23;;;6.04;58.72
82621;BME280;72291;55.002;-1.592;2024-01-27T09:24:32;101796.11;;;5.50;59.95
82621;BME280;72291;55.002;-1.592;2024-01-27T09:26:55;101797.11;;;6.83;57.34
82621;BME280;72291;55.002;-1.592;2024-01-27T09:29:20;101799.59;;;5.90;58.63
82621;BME280;72291;55.002;-1.592;2024-01-27T09:31:46;101804.85;;;5.52;60.77
82621;BME280;72291;55.002;-1.592;2024-01-27T09:34:11;101800.41;;;5.71;59.77
82621;BME280;72291;55.002;-1.592;2024-01-27T09:36:37;101805.37;;;5.61;59.73
82621;BME280;72291;55.002;-1.592;2024-01-27T09:39:02;101806.77;;;5.69;59.64
82621;BME280;72291;55.002;-1.592;2024-01-27T09:41:30;101799.06;;;5.44;59.41
82621;BME280;72291;55.002;-1.592;2024-01-27T09:43:53;101811.50;;;5.56;60.37
82621;BME280;72291;55.002;-1.592;2024-01-27T09:46:17;101812.61;;;5.73;59.23
82621;BME280;72291;55.002;-1.592;2024-01-27T09:48:43;101813.83;;;5.40;59.38
82621;BME280;72291;55.002;-1.592;2024-01-27T09:51:09;101814.23;;;5.65;59.35
82621;BME280;72291;55.002;-1.592;2024-01-27T09:53:33;101805.71;;;5.25;60.93
82621;BME280;72291;55.002;-1.592;2024-01-27T09:55:59;101809.80;;;5.01;61.92
82621;BME280;72291;55.002;-1.592;2024-01-27T09:58:24;101808.69;;;5.77;60.00
82621;BME280;72291;55.002;-1.592;2024-01-27T10:00:50;101808.52;;;5.05;61.09
82621;BME280;72291;55.002;-1.592;2024-01-27T10:03:15;101808.50;;;5.30;60.25
82621;BME280;72291;55.002;-1.592;2024-01-27T10:05:41;101802.71;;;6.02;58.46
82621;BME280;72291;55.002;-1.592;2024-01-27T10:08:06;101805.50;;;5.83;59.11
82621;BME280;72291;55.002;-1.592;2024-01-27T10:10:30;101801.29;;;5.35;60.56
82621;BME280;72291;55.002;-1.592;2024-01-27T10:12:58;101796.54;;;5.06;61.31
82621;BME280;72291;55.002;-1.592;2024-01-27T10:15:21;101796.74;;;5.60;59.75
82621;BME280;72291;55.002;-1.592;2024-01-27T10:17:46;101788.62;;;5.51;59.88
82621;BME280;72291;55.002;-1.592;2024-01-27T10:20:11;101791.33;;;5.43;60.37
82621;BME280;72291;55.002;-1.592;2024-01-27T10:22:38;101781.90;;;5.32;60.16
82621;BME280;72291;55.002;-1.592;2024-01-27T10:25:03;101781.99;;;5.62;58.92
82621;BME280;72291;55.002;-1.592;2024-01-27T10:27:27;101780.59;;;5.93;59.01
82621;BME280;72291;55.002;-1.592;2024-01-27T10:29:53;101773.30;;;5.65;58.55
82621;BME280;72291;55.002;-1.592;2024-01-27T10:32:17;101770.74;;;5.18;59.48
82621;BME280;72291;55.002;-1.592;2024-01-27T10:34:43;101769.81;;;5.94;57.79
82621;BME280;72291;55.002;-1.592;2024-01-27T10:37:12;101769.30;;;6.01;58.70
82621;BME280;72291;55.002;-1.592;2024-01-27T10:39:33;101778.31;;;6.09;58.11
82621;BME280;72291;55.002;-1.592;2024-01-27T10:42:02;101774.42;;;5.43;59.40
82621;BME280;72291;55.002;-1.592;2024-01-27T10:44:24;101783.71;;;5.70;58.65
82621;BME280;72291;55.002;-1.592;2024-01-27T10:46:49;101782.48;;;6.02;58.76
82621;BME280;72291;55.002;-1.592;2024-01-27T10:49:16;101780.70;;;5.99;57.36
82621;BME280;72291;55.002;-1.592;2024-01-27T10:51:43;101782.87;;;5.97;57.83
82621;BME280;72291;55.002;-1.592;2024-01-27T10:54:04;101785.98;;;6.57;55.77
82621;BME280;72291;55.002;-1.592;2024-01-27T10:56:31;101788.14;;;6.05;56.27
82621;BME280;72291;55.002;-1.592;2024-01-27T10:58:55;101782.73;;;6.36;56.19
82621;BME280;72291;55.002;-1.592;2024-01-27T11:01:21;101780.39;;;7.10;55.46
82621;BME280;72291;55.002;-1.592;2024-01-27T11:03:47;101782.82;;;6.38;56.64
82621;BME280;72291;55.002;-1.592;2024-01-27T11:06:11;101767.75;;;6.58;55.95
82621;BME280;72291;55.002;-1.592;2024-01-27T11:08:36;101777.03;;;5.84;57.57
82621;BME280;72291;55.002;-1.592;2024-01-27T11:11:03;101783.69;;;5.75;57.73
82621;BME280;72291;55.002;-1.592;2024-01-27T11:13:28;101774.12;;;6.07;57.15
82621;BME280;72291;55.002;-1.592;2024-01-27T11:15:51;101763.10;;;6.51;57.20
82621;BME280;72291;55.002;-1.592;2024-01-27T11:18:21;101763.30;;;7.12;54.38
82621;BME280;72291;55.002;-1.592;2024-01-27T11:20:44;101758.93;;;6.77;55.02
82621;BME280;72291;55.002;-1.592;2024-01-27T11:23:10;101756.70;;;7.71;52.45
82621;BME280;72291;55.002;-1.592;2024-01-27T11:25:32;101748.55;;;7.16;53.91
82621;BME280;72291;55.002;-1.592;2024-01-27T11:27:56;101754.95;;;6.94;54.37
82621;BME280;72291;55.002;-1.592;2024-01-27T11:30:28;101736.96;;;9.12;49.88
82621;BME280;72291;55.002;-1.592;2024-01-27T11:32:49;101740.31;;;9.65;48.27
82621;BME280;72291;55.002;-1.592;2024-01-27T11:35:12;101739.31;;;9.78;47.69
82621;BME280;72291;55.002;-1.592;2024-01-27T11:37:38;101739.97;;;8.00;50.48
82621;BME280;72291;55.002;-1.592;2024-01-27T11:40:04;101740.26;;;8.70;50.24
82621;BME280;72291;55.002;-1.592;2024-01-27T11:42:28;101738.81;;;9.74;47.97
82621;BME280;72291;55.002;-1.592;2024-01-27T11:44:54;101739.69;;;7.94;51.49
82621;BME280;72291;55.002;-1.592;2024-01-27T11:47:19;101738.00;;;7.86;52.36
82621;BME280;72291;55.002;-1.592;2024-01-27T11:49:49;101747.48;;;8.34;51.20
82621;BME280;72291;55.002;-1.592;2024-01-27T11:52:09;101745.95;;;9.37;49.78
82621;BME280;72291;55.002;-1.592;2024-01-27T11:54:34;101746.08;;;10.22;47.65
82621;BME280;72291;55.002;-1.592;2024-01-27T11:57:03;101744.48;;;8.75;49.77
82621;BME280;72291;55.002;-1.592;2024-01-27T11:59:24;101745.71;;;7.24;53.86
82621;BME280;72291;55.002;-1.592;2024-01-27T12:01:50;101746.48;;;6.78;54.60
82621;BME280;72291;55.002;-1.592;2024-01-27T12:04:14;101750.57;;;7.31;53.77
82621;BME280;72291;55.002;-1.592;2024-01-27T12:06:39;101744.74;;;7.06;55.46
82621;BME280;72291;55.002;-1.592;2024-01-27T12:09:04;101756.98;;;7.28;54.68
82621;BME280;72291;55.002;-1.592;2024-01-27T12:11:29;101749.21;;;8.44;51.93
82621;BME280;72291;55.002;-1.592;2024-01-27T12:13:56;101738.25;;;8.36;52.43
82621;BME280;72291;55.002;-1.592;2024-01-27T12:16:21;101755.78;;;7.49;55.41
82621;BME280;72291;55.002;-1.592;2024-01-27T12:18:45;101747.71;;;6.85;55.94
82621;BME280;72291;55.002;-1.592;2024-01-27T12:21:10;101755.52;;;7.70;54.71
82621;BME280;72291;55.002;-1.592;2024-01-27T12:23:35;101750.41;;;6.54;57.25
82621;BME280;72291;55.002;-1.592;2024-01-27T12:26:01;101754.34;;;7.46;56.12
82621;BME280;72291;55.002;-1.592;2024-01-27T12:28:27;101754.88;;;6.54;57.38
82621;BME280;72291;55.002;-1.592;2024-01-27T12:30:52;101758.66;;;6.86;56.85
82621;BME280;72291;55.002;-1.592;2024-01-27T12:33:16;101762.09;;;7.17;55.62
82621;BME280;72291;55.002;-1.592;2024-01-27T12:35:41;101763.70;;;6.90;55.97
82621;BME280;72291;55.002;-1.592;2024-01-27T12:38:06;101760.24;;;7.19;55.53
82621;BME280;72291;55.002;-1.592;2024-01-27T12:40:33;101757.69;;;8.73;52.31
82621;BME280;72291;55.002;-1.592;2024-01-27T12:43:02;101758.59;;;8.49;52.04
82621;BME280;72291;55.002;-1.592;2024-01-27T12:45:22;101753.83;;;8.08;52.71
82621;BME280;72291;55.002;-1.592;2024-01-27T12:47:49;101753.75;;;7.64;53.95
82621;BME280;72291;55.002;-1.592;2024-01-27T12:50:13;101753.17;;;7.85;53.24
82621;BME280;72291;55.002;-1.592;2024-01-27T12:52:41;101751.79;;;7.88;52.96
82621;BME280;72291;55.002;-1.592;2024-01-27T13:04:51;101736.71;;;8.24;52.37
82621;BME280;72291;55.002;-1.592;2024-01-27T13:14:25;101742.57;;;7.91;51.86
82621;BME280;72291;55.002;-1.592;2024-01-27T13:16:52;101728.51;;;8.11;51.52
82621;BME280;72291;55.002;-1.592;2024-01-27T13:19:15;101731.12;;;8.59;51.42
82621;BME280;72291;55.002;-1.592;2024-01-27T13:21:40;101737.30;;;8.41;51.51
82621;BME280;72291;55.002;-1.592;2024-01-27T13:24:06;101732.43;;;7.96;52.59
82621;BME280;72291;55.002;-1.592;2024-01-27T13:26:30;101736.08;;;8.09;52.11
82621;BME280;72291;55.002;-1.592;2024-01-27T13:28:56;101733.10;;;8.99;50.67
82621;BME280;72291;55.002;-1.592;2024-01-27T13:31:21;101728.32;;;8.52;51.05
82621;BME280;72291;55.002;-1.592;2024-01-27T13:33:46;101718.77;;;8.38;50.36
82621;BME280;72291;55.002;-1.592;2024-01-27T13:36:11;101722.09;;;7.90;52.23
82621;BME280;72291;55.002;-1.592;2024-01-27T13:38:42;101717.30;;;8.04;51.99
82621;BME280;72291;55.002;-1.592;2024-01-27T13:41:04;101706.45;;;9.17;50.88
82621;BME280;72291;55.002;-1.592;2024-01-27T13:43:27;101712.10;;;8.49;52.22
82621;BME280;72291;55.002;-1.592;2024-01-27T13:45:52;101709.44;;;8.06;52.77
82621;BME280;72291;55.002;-1.592;2024-01-27T13:48:17;101709.53;;;8.38;52.55
82621;BME280;72291;55.002;-1.592;2024-01-27T13:50:42;101703.82;;;7.80;54.33
82621;BME280;72291;55.002;-1.592;2024-01-27T13:53:11;101707.30;;;8.05;53.60
82621;BME280;72291;55.002;-1.592;2024-01-27T13:55:32;101710.01;;;7.72;53.84
82621;BME280;72291;55.002;-1.592;2024-01-27T13:57:58;101708.86;;;7.75;53.84